createdAt,value
2023-02-12T00:01:02.769Z,5.10
2023-02-12T00:03:29.353Z,5.17
2023-02-12T00:05:56.267Z,4.93
2023-02-12T00:08:22.990Z,4.90
2023-02-12T00:10:49.499Z,5.17
2023-02-12T00:13:16.122Z,5.10
2023-02-12T00:15:42.837Z,5.27
2023-02-12T00:18:09.385Z,5.03
2023-02-12T00:20:37.038Z,4.80
2023-02-12T00:23:03.752Z,5.30
2023-02-12T00:25:30.327Z,4.87
2023-02-12T00:27:56.960Z,4.93
2023-02-12T00:30:23.636Z,4.87
2023-02-12T00:32:50.199Z,4.40
2023-02-12T00:35:16.933Z,4.63
2023-02-12T00:37:43.578Z,4.83
2023-02-12T00:40:10.593Z,5.30
2023-02-12T00:42:37.208Z,4.97
2023-02-12T00:45:04.025Z,4.70
2023-02-12T00:47:30.599Z,4.53
2023-02-12T00:49:57.152Z,4.70
2023-02-12T00:52:23.743Z,5.00
2023-02-12T00:54:50.263Z,5.10
2023-02-12T00:57:16.806Z,5.23
2023-02-12T00:59:43.412Z,4.73
2023-02-12T01:02:10.023Z,5.40
2023-02-12T01:04:36.873Z,5.10
2023-02-12T01:07:03.540Z,5.07
2023-02-12T01:09:30.063Z,4.83
2023-02-12T01:11:56.627Z,4.60
2023-02-12T01:14:23.162Z,5.00
2023-02-12T01:16:49.675Z,4.70
2023-02-12T01:19:16.416Z,5.03
2023-02-12T01:21:42.949Z,5.07
2023-02-12T01:24:09.524Z,5.07
2023-02-12T01:26:36.068Z,4.90
2023-02-12T01:29:04.833Z,4.57
2023-02-12T01:31:33.209Z,4.73
2023-02-12T01:34:00.429Z,4.73
2023-02-12T01:36:27.640Z,4.67
2023-02-12T01:38:54.287Z,4.57
2023-02-12T01:41:22.790Z,4.33
2023-02-12T01:44:11.431Z,5.20
2023-02-12T01:46:38.132Z,4.60
2023-02-12T01:49:06.278Z,4.80
2023-02-12T01:51:32.819Z,4.47
2023-02-12T01:54:00.541Z,5.00
2023-02-12T01:56:27.148Z,4.57
2023-02-12T01:58:53.717Z,5.00
2023-02-12T02:01:22.057Z,4.73
2023-02-12T02:03:50.044Z,5.13
2023-02-12T02:06:34.654Z,4.63
2023-02-12T02:09:01.518Z,5.33
2023-02-12T02:11:46.538Z,4.60
2023-02-12T02:14:31.247Z,4.80
2023-02-12T02:17:12.985Z,4.90
2023-02-12T02:19:58.244Z,4.67
2023-02-12T02:22:32.675Z,4.30
2023-02-12T02:25:26.541Z,4.40
2023-02-12T02:28:15.025Z,5.03
2023-02-12T02:31:09.589Z,5.13
2023-02-12T02:33:40.326Z,5.20
2023-02-12T02:36:16.077Z,4.80
2023-02-12T02:38:47.776Z,4.77
2023-02-12T02:41:26.261Z,4.87
2023-02-12T02:43:52.786Z,4.50
2023-02-12T02:46:31.795Z,4.83
2023-02-12T02:49:21.451Z,5.03
2023-02-12T02:51:50.047Z,4.53
2023-02-12T02:54:36.269Z,4.50
2023-02-12T02:57:11.887Z,5.37
2023-02-12T02:59:42.317Z,4.50
2023-02-12T03:02:13.578Z,5.23
2023-02-12T03:04:43.025Z,5.23
2023-02-12T03:07:27.323Z,4.87
2023-02-12T03:09:57.405Z,4.83
2023-02-12T03:12:46.431Z,5.23
2023-02-12T03:15:32.627Z,5.00
2023-02-12T03:17:59.283Z,4.93
2023-02-12T03:20:29.279Z,5.47
2023-02-12T03:23:07.391Z,5.20
2023-02-12T03:25:38.820Z,4.83
2023-02-12T03:28:11.869Z,4.93
2023-02-12T03:30:48.754Z,5.00
2023-02-12T03:33:26.384Z,5.20
2023-02-12T03:36:00.701Z,4.90
2023-02-12T03:38:27.155Z,4.83
2023-02-12T03:40:59.946Z,4.90
2023-02-12T03:43:53.577Z,4.93
2023-02-12T03:46:21.710Z,4.50
2023-02-12T03:49:01.527Z,4.87
2023-02-12T03:51:34.037Z,4.43
2023-02-12T03:54:01.127Z,4.53
2023-02-12T03:56:32.565Z,4.80
2023-02-12T03:58:59.097Z,4.83
2023-02-12T04:01:26.345Z,4.77
2023-02-12T04:03:52.955Z,5.10
2023-02-12T04:06:24.119Z,4.77
2023-02-12T04:08:50.651Z,4.53
2023-02-12T04:11:31.284Z,5.33
2023-02-12T04:14:28.140Z,5.20
2023-02-12T04:17:21.451Z,5.07
2023-02-12T04:20:22.178Z,4.87
2023-02-12T04:23:00.869Z,4.67
2023-02-12T04:25:48.670Z,5.03
2023-02-12T04:28:35.165Z,5.07
2023-02-12T04:31:08.613Z,4.20
2023-02-12T04:33:57.025Z,4.87
2023-02-12T04:36:25.450Z,4.57
2023-02-12T04:38:54.089Z,4.80
2023-02-12T04:41:20.616Z,4.50
2023-02-12T04:43:47.119Z,4.47
2023-02-12T04:46:13.750Z,5.03
2023-02-12T04:49:00.580Z,4.80
2023-02-12T04:51:27.242Z,5.13
2023-02-12T04:53:53.760Z,4.83
2023-02-12T04:56:20.320Z,5.10
2023-02-12T04:58:46.944Z,5.30
2023-02-12T05:01:13.750Z,5.03
2023-02-12T05:03:40.369Z,5.13
2023-02-12T05:06:08.030Z,5.13
2023-02-12T05:08:34.645Z,4.60
2023-02-12T05:11:08.059Z,4.97
2023-02-12T05:13:34.786Z,4.93
2023-02-12T05:16:04.546Z,5.30
2023-02-12T05:18:31.690Z,5.23
2023-02-12T05:20:59.378Z,4.47
2023-02-12T05:23:29.752Z,5.37
2023-02-12T05:25:58.535Z,5.17
2023-02-12T05:28:25.222Z,5.03
2023-02-12T05:30:51.820Z,5.20
2023-02-12T05:33:18.497Z,5.23
2023-02-12T05:35:45.064Z,4.90
2023-02-12T05:38:11.630Z,4.93
2023-02-12T05:40:40.250Z,5.43
2023-02-12T05:43:06.795Z,4.90
2023-02-12T05:45:33.460Z,5.07
2023-02-12T05:48:00.005Z,5.47
2023-02-12T05:50:26.529Z,5.33
2023-02-12T05:52:53.075Z,5.20
2023-02-12T05:55:19.623Z,4.93
2023-02-12T05:57:46.141Z,5.50
2023-02-12T06:00:13.210Z,5.10
2023-02-12T06:02:39.835Z,5.20
2023-02-12T06:05:06.635Z,5.00
2023-02-12T06:07:33.201Z,5.10
2023-02-12T06:09:59.819Z,5.00
2023-02-12T06:12:26.349Z,4.17
2023-02-12T06:14:52.965Z,4.30
2023-02-12T06:17:19.474Z,4.10
2023-02-12T06:19:45.992Z,3.70
2023-02-12T06:22:12.527Z,3.50
2023-02-12T06:24:39.099Z,3.63
2023-02-12T06:27:05.688Z,3.70
2023-02-12T06:29:32.305Z,4.03
2023-02-12T06:31:58.965Z,3.67
2023-02-12T06:34:25.522Z,3.53
2023-02-12T06:36:52.101Z,3.73
2023-02-12T06:39:18.897Z,3.83
2023-02-12T06:41:45.422Z,3.90
2023-02-12T06:44:12.676Z,3.70
2023-02-12T06:46:39.394Z,3.80
2023-02-12T06:49:06.093Z,4.13
2023-02-12T06:51:32.661Z,4.10
2023-02-12T06:53:59.312Z,3.70
2023-02-12T06:56:26.293Z,4.00
2023-02-12T06:58:57.897Z,3.73
2023-02-12T07:01:26.249Z,3.63
2023-02-12T07:04:00.188Z,3.63
2023-02-12T07:06:27.268Z,3.33
2023-02-12T07:08:54.926Z,4.07
2023-02-12T07:11:29.264Z,3.80
2023-02-12T07:13:55.825Z,4.17
2023-02-12T07:16:22.497Z,3.67
2023-02-12T07:18:49.146Z,3.73
2023-02-12T07:21:15.955Z,3.90
2023-02-12T07:23:42.806Z,3.47
2023-02-12T07:26:11.604Z,3.73
2023-02-12T07:28:38.261Z,4.20
2023-02-12T07:31:12.944Z,3.87
2023-02-12T07:33:39.884Z,4.30
2023-02-12T07:36:10.163Z,4.07
2023-02-12T07:38:39.657Z,4.07
2023-02-12T07:41:12.294Z,4.17
2023-02-12T07:43:43.306Z,4.23
2023-02-12T07:46:17.834Z,4.33
2023-02-12T07:48:45.036Z,4.90
2023-02-12T07:51:13.030Z,4.40
2023-02-12T07:53:39.529Z,4.50
2023-02-12T07:56:07.764Z,4.57
2023-02-12T07:58:34.553Z,4.57
2023-02-12T08:01:01.134Z,4.83
2023-02-12T08:03:30.897Z,4.50
2023-02-12T08:05:57.738Z,6.20
2023-02-12T08:08:24.317Z,9.97
2023-02-12T08:10:50.850Z,11.73
2023-02-12T08:13:17.466Z,16.77
2023-02-12T08:15:44.008Z,20.63
2023-02-12T08:18:10.613Z,22.07
2023-02-12T08:20:37.127Z,23.77
2023-02-12T08:23:03.913Z,24.00
2023-02-12T08:25:30.553Z,24.03
2023-02-12T08:27:57.364Z,22.20
2023-02-12T08:30:24.003Z,22.33
2023-02-12T08:32:50.578Z,22.30
2023-02-12T08:35:17.234Z,22.10
2023-02-12T08:37:43.788Z,20.23
2023-02-12T08:40:13.301Z,19.50
2023-02-12T08:42:39.845Z,19.77
2023-02-12T08:45:06.755Z,19.40
2023-02-12T08:47:33.333Z,18.87
2023-02-12T08:49:59.906Z,18.00
2023-02-12T08:52:26.498Z,16.90
2023-02-12T08:57:28.283Z,16.40
2023-02-12T08:59:54.848Z,16.07
2023-02-12T09:02:21.508Z,15.50
2023-02-12T09:04:48.068Z,15.40
2023-02-12T09:07:14.615Z,14.60
2023-02-12T09:09:41.170Z,14.50
2023-02-12T09:12:07.767Z,14.30
2023-02-12T09:14:34.281Z,12.50
2023-02-12T09:17:00.844Z,12.03
2023-02-12T09:19:27.477Z,12.17
2023-02-12T09:21:56.261Z,11.47
2023-02-12T09:24:24.292Z,11.60
2023-02-12T09:26:50.856Z,11.30
2023-02-12T09:29:17.440Z,11.50
2023-02-12T09:31:44.135Z,11.57
2023-02-12T09:34:10.726Z,10.83
2023-02-12T09:36:37.377Z,10.60
2023-02-12T09:39:05.628Z,10.90
2023-02-12T09:41:55.432Z,10.27
2023-02-12T09:44:44.450Z,10.00
2023-02-12T09:47:21.285Z,10.17
2023-02-12T09:50:03.588Z,10.73
2023-02-12T09:52:30.176Z,9.23
2023-02-12T09:54:56.859Z,9.27
2023-02-12T09:57:35.125Z,8.97
2023-02-12T10:00:14.978Z,9.10
2023-02-12T10:02:41.574Z,8.97
2023-02-12T10:05:28.685Z,8.73
2023-02-12T10:08:12.055Z,8.80
2023-02-12T10:10:51.923Z,8.77
2023-02-12T10:13:24.831Z,9.03
2023-02-12T10:15:54.838Z,8.50
2023-02-12T10:18:40.200Z,8.27
2023-02-12T10:21:43.810Z,8.47
2023-02-12T10:24:26.159Z,8.47
2023-02-12T10:27:00.638Z,8.33
2023-02-12T10:29:33.321Z,8.40
2023-02-12T10:32:07.939Z,8.10
2023-02-12T10:34:36.273Z,7.93
2023-02-12T10:37:16.877Z,8.23
2023-02-12T10:39:47.972Z,8.00
2023-02-12T10:42:36.224Z,8.40
2023-02-12T10:45:02.872Z,7.07
2023-02-12T10:47:29.417Z,8.30
2023-02-12T10:49:58.265Z,7.57
2023-02-12T10:52:38.235Z,7.40
2023-02-12T10:55:25.594Z,7.77
2023-02-12T10:57:52.269Z,7.87
2023-02-12T11:00:36.305Z,7.80
2023-02-12T11:03:23.653Z,7.50
2023-02-12T11:05:50.280Z,7.60
2023-02-12T11:08:39.199Z,7.70
2023-02-12T11:11:19.485Z,7.37
2023-02-12T11:13:57.175Z,7.90
2023-02-12T11:16:28.244Z,7.20
2023-02-12T11:18:59.778Z,6.70
2023-02-12T11:21:26.344Z,6.90
2023-02-12T11:23:53.234Z,6.90
2023-02-12T11:26:20.237Z,6.70
2023-02-12T11:29:09.615Z,6.77
2023-02-12T11:31:41.741Z,6.83
2023-02-12T11:34:19.874Z,6.70
2023-02-12T11:36:50.543Z,6.37
2023-02-12T11:39:26.919Z,6.87
2023-02-12T11:41:58.797Z,6.70
2023-02-12T11:44:26.558Z,6.40
2023-02-12T11:47:03.758Z,6.57
2023-02-12T11:49:32.217Z,6.07
2023-02-12T11:52:00.545Z,6.77
2023-02-12T11:54:28.509Z,6.50
2023-02-12T11:56:57.820Z,6.63
2023-02-12T11:59:32.224Z,6.27
2023-02-12T12:02:01.915Z,6.27
2023-02-12T12:04:28.982Z,6.07
2023-02-12T12:06:58.822Z,6.37
2023-02-12T12:12:07.010Z,6.33
2023-02-12T12:14:56.764Z,6.10
2023-02-12T12:17:44.742Z,6.20
2023-02-12T12:20:17.798Z,5.77
2023-02-12T12:22:53.531Z,5.53
2023-02-12T12:26:00.367Z,6.20
2023-02-12T12:28:32.599Z,5.33
2023-02-12T12:31:05.652Z,5.43
2023-02-12T12:33:48.175Z,5.70
2023-02-12T12:36:14.609Z,5.70
2023-02-12T12:39:08.698Z,6.30
2023-02-12T12:41:56.944Z,6.17
2023-02-12T12:44:26.351Z,5.80
2023-02-12T12:47:13.618Z,5.40
2023-02-12T12:49:48.788Z,5.63
2023-02-12T12:52:35.032Z,6.37
2023-02-12T12:55:07.528Z,5.47
2023-02-12T12:57:37.206Z,4.87
2023-02-12T13:00:35.144Z,5.90
2023-02-12T13:03:34.011Z,5.27
2023-02-12T13:06:46.922Z,5.40
2023-02-12T13:09:22.551Z,5.33
2023-02-12T13:11:58.158Z,5.87
2023-02-12T13:14:46.424Z,5.40
2023-02-12T13:17:17.982Z,5.50
2023-02-12T13:19:47.416Z,4.67
2023-02-12T13:22:19.448Z,4.77
2023-02-12T13:25:01.559Z,4.83
2023-02-12T13:27:33.283Z,4.60
2023-02-12T13:30:27.423Z,4.53
2023-02-12T13:33:02.607Z,4.63
2023-02-12T13:35:29.592Z,4.83
2023-02-12T13:37:56.207Z,4.97
2023-02-12T13:40:24.553Z,4.43
2023-02-12T13:43:25.947Z,4.60
2023-02-12T13:46:07.205Z,4.60
2023-02-12T13:48:40.896Z,4.00
2023-02-12T13:51:14.988Z,4.23
2023-02-12T13:53:50.792Z,3.83
2023-02-12T13:56:46.009Z,4.83
2023-02-12T13:59:47.387Z,4.67
2023-02-12T14:02:42.721Z,4.30
2023-02-12T14:05:22.003Z,4.73
2023-02-12T14:08:07.107Z,8.07
2023-02-12T14:10:37.819Z,10.70
2023-02-12T14:13:22.080Z,8.63
2023-02-12T14:15:51.552Z,9.77
2023-02-12T14:18:27.054Z,10.40
2023-02-12T14:21:12.063Z,9.87
2023-02-12T14:23:39.836Z,10.10
2023-02-12T14:26:15.875Z,9.27
2023-02-12T14:28:48.407Z,8.90
2023-02-12T14:31:18.106Z,8.50
2023-02-12T14:34:11.231Z,8.27
2023-02-12T14:36:40.698Z,8.00
2023-02-12T14:39:19.527Z,8.20
2023-02-12T14:41:48.936Z,8.53
2023-02-12T14:44:19.983Z,8.00
2023-02-12T14:46:56.368Z,8.03
2023-02-12T14:49:26.620Z,7.80
2023-02-12T14:52:15.011Z,7.40
2023-02-12T14:54:44.982Z,6.90
2023-02-12T14:57:34.293Z,7.30
2023-02-12T15:00:20.644Z,7.13
2023-02-12T15:03:02.598Z,7.07
2023-02-12T15:05:38.423Z,6.20
2023-02-12T15:08:36.480Z,6.83
2023-02-12T15:11:36.847Z,6.50
2023-02-12T15:14:20.825Z,6.30
2023-02-12T15:17:03.781Z,6.77
2023-02-12T15:19:53.211Z,6.47
2023-02-12T15:22:41.979Z,5.47
2023-02-12T15:25:24.507Z,8.13
2023-02-12T15:27:54.264Z,12.37
2023-02-12T15:30:26.365Z,12.33
2023-02-12T15:32:55.560Z,12.33
2023-02-12T15:35:25.306Z,12.23
2023-02-12T15:37:51.923Z,12.03
2023-02-12T15:40:18.779Z,11.93
2023-02-12T15:43:03.559Z,12.27
2023-02-12T15:45:34.464Z,10.63
2023-02-12T15:48:14.597Z,11.67
2023-02-12T15:50:49.176Z,11.60
2023-02-12T15:53:16.035Z,10.90
2023-02-12T15:55:44.301Z,11.00
2023-02-12T15:58:28.755Z,10.43
2023-02-12T16:00:59.814Z,9.90
2023-02-12T16:03:31.110Z,9.17
2023-02-12T16:06:06.511Z,9.10
2023-02-12T16:08:33.917Z,9.67
2023-02-12T16:11:00.851Z,9.70
2023-02-12T16:13:33.026Z,8.63
2023-02-12T16:16:11.747Z,8.37
2023-02-12T16:18:38.788Z,8.70
2023-02-12T16:21:15.945Z,8.30
2023-02-12T16:23:44.323Z,8.23
2023-02-12T16:26:19.441Z,7.90
2023-02-12T16:28:51.185Z,7.53
2023-02-12T16:31:18.095Z,7.87
2023-02-12T16:33:57.730Z,8.27
2023-02-12T16:36:24.275Z,7.40
2023-02-12T16:39:06.497Z,7.73
2023-02-12T16:41:33.849Z,7.07
2023-02-12T16:44:00.292Z,7.50
2023-02-12T16:46:34.540Z,7.30
2023-02-12T16:49:06.531Z,7.03
2023-02-12T16:51:35.842Z,6.67
2023-02-12T16:54:06.081Z,6.50
2023-02-12T16:56:37.857Z,6.60
2023-02-12T16:59:05.114Z,6.30
2023-02-12T17:01:33.901Z,6.70
2023-02-12T17:04:01.172Z,6.47
2023-02-12T17:06:31.525Z,6.50
2023-02-12T17:08:58.218Z,6.63
2023-02-12T17:11:28.107Z,6.10
2023-02-12T17:13:58.212Z,6.37
2023-02-12T17:16:30.761Z,6.40
2023-02-12T17:18:58.678Z,6.60
2023-02-12T17:21:30.046Z,5.73
2023-02-12T17:23:56.619Z,5.93
2023-02-12T17:26:23.813Z,5.57
2023-02-12T17:28:50.419Z,5.77
2023-02-12T17:31:17.239Z,6.00
2023-02-12T17:33:44.476Z,6.07
2023-02-12T17:36:11.835Z,5.73
2023-02-12T17:38:38.396Z,5.60
2023-02-12T17:41:09.589Z,5.63
2023-02-12T17:43:36.572Z,5.63
2023-02-12T17:46:13.186Z,5.77
2023-02-12T17:48:40.556Z,5.30
2023-02-12T17:51:07.410Z,5.47
2023-02-12T17:53:34.092Z,6.40
2023-02-12T17:56:00.813Z,5.43
2023-02-12T17:58:27.445Z,5.67
2023-02-12T18:00:55.359Z,5.27
2023-02-12T18:03:22.262Z,5.57
2023-02-12T18:05:48.828Z,5.23
2023-02-12T18:08:15.379Z,5.30
2023-02-12T18:10:42.770Z,5.67
2023-02-12T18:13:09.636Z,5.57
2023-02-12T18:15:36.969Z,4.73
2023-02-12T18:18:03.732Z,5.20
2023-02-12T18:20:30.318Z,5.50
2023-02-12T18:22:56.912Z,4.77
2023-02-12T18:25:23.551Z,5.03
2023-02-12T18:27:50.220Z,4.87
2023-02-12T18:30:16.952Z,5.10
2023-02-12T18:32:43.550Z,4.97
2023-02-12T18:35:10.328Z,4.43
2023-02-12T18:37:37.023Z,4.63
2023-02-12T18:40:03.958Z,5.13
2023-02-12T18:42:32.767Z,4.93
2023-02-12T18:44:59.895Z,5.27
2023-02-12T18:47:26.507Z,5.13
2023-02-12T18:49:53.145Z,5.03
2023-02-12T18:52:19.820Z,5.50
2023-02-12T18:54:46.502Z,5.43
2023-02-12T18:57:13.205Z,5.20
2023-02-12T18:59:40.083Z,5.30
2023-02-12T19:02:06.894Z,5.53
2023-02-12T19:04:33.589Z,4.87
2023-02-12T19:07:00.153Z,5.10
2023-02-12T19:09:26.937Z,5.23
2023-02-12T19:11:55.056Z,7.73
2023-02-12T19:14:22.224Z,7.53
2023-02-12T19:16:49.021Z,7.57
2023-02-12T19:19:15.669Z,7.47
2023-02-12T19:21:42.372Z,7.67
2023-02-12T19:24:11.176Z,7.57
2023-02-12T19:26:37.723Z,7.47
2023-02-12T19:29:04.930Z,7.53
2023-02-12T19:31:32.526Z,7.00
2023-02-12T19:34:01.834Z,6.97
2023-02-12T19:36:29.358Z,6.93
2023-02-12T19:38:55.920Z,6.40
2023-02-12T19:41:23.864Z,7.07
2023-02-12T19:43:54.620Z,7.23
2023-02-12T19:46:21.501Z,7.17
2023-02-12T19:48:48.233Z,6.80
2023-02-12T19:51:16.120Z,6.80
2023-02-12T19:53:42.984Z,6.53
2023-02-12T19:56:10.719Z,5.90
2023-02-12T19:58:37.645Z,5.93
2023-02-12T20:01:15.567Z,6.03
2023-02-12T20:03:42.252Z,6.70
2023-02-12T20:06:10.789Z,5.40
2023-02-12T20:08:38.028Z,5.90
2023-02-12T20:11:15.381Z,6.17
2023-02-12T20:13:42.051Z,5.97
2023-02-12T20:16:11.247Z,5.77
2023-02-12T20:18:38.126Z,5.60
2023-02-12T20:21:31.126Z,5.83
2023-02-12T20:23:58.039Z,5.03
2023-02-12T20:26:24.876Z,5.43
2023-02-12T20:29:02.796Z,6.20
2023-02-12T20:31:37.142Z,5.73
2023-02-12T20:37:04.459Z,5.60
2023-02-12T20:39:30.997Z,5.63
2023-02-12T20:41:57.641Z,5.30
2023-02-12T20:48:38.522Z,5.50
2023-02-12T20:51:34.613Z,4.70
2023-02-12T20:54:39.213Z,5.40
2023-02-12T20:57:28.980Z,5.27
2023-02-12T21:00:14.322Z,5.87
2023-02-12T21:02:40.911Z,5.27
2023-02-12T21:05:36.672Z,5.23
2023-02-12T21:08:03.273Z,5.60
2023-02-12T21:10:41.687Z,5.30
2023-02-12T21:13:08.216Z,5.13
2023-02-12T21:16:17.743Z,5.43
2023-02-12T21:26:03.977Z,5.30
2023-02-12T21:31:34.212Z,4.80
2023-02-12T21:34:43.957Z,4.80
2023-02-12T21:37:23.852Z,5.07
2023-02-12T21:39:50.412Z,5.10
2023-02-12T21:42:39.913Z,5.10
2023-02-12T21:45:06.651Z,5.07
2023-02-12T21:47:33.267Z,5.53
2023-02-12T21:49:59.931Z,5.63
2023-02-12T21:52:26.487Z,5.23
2023-02-12T21:54:55.512Z,4.97
2023-02-12T21:57:22.131Z,5.30
2023-02-12T22:00:02.008Z,5.40
2023-02-12T22:02:34.838Z,5.63
2023-02-12T22:05:01.408Z,4.80
2023-02-12T22:07:27.957Z,5.23
2023-02-12T22:09:57.279Z,5.07
2023-02-12T22:12:24.384Z,4.60
2023-02-12T22:15:11.318Z,5.07
2023-02-12T22:17:37.868Z,5.27
2023-02-12T22:20:18.801Z,4.93
2023-02-12T22:22:48.669Z,5.30
2023-02-12T22:25:38.251Z,5.47
2023-02-12T22:28:04.968Z,4.77
2023-02-12T22:30:52.276Z,5.23
2023-02-12T22:33:18.897Z,5.60
2023-02-12T22:35:45.409Z,4.87
2023-02-12T22:38:11.905Z,5.50
2023-02-12T22:40:41.780Z,5.97
2023-02-12T22:43:15.536Z,5.33
2023-02-12T22:45:43.781Z,5.10
2023-02-12T22:48:13.655Z,5.43
2023-02-12T22:50:40.270Z,5.20
2023-02-12T22:55:51.736Z,5.53
2023-02-12T22:58:21.363Z,5.10
2023-02-12T23:00:48.040Z,5.83
2023-02-12T23:03:20.651Z,6.03
2023-02-12T23:05:59.127Z,5.83
2023-02-12T23:08:31.866Z,5.23
2023-02-12T23:11:08.594Z,5.97
2023-02-12T23:13:45.270Z,5.60
2023-02-12T23:16:18.889Z,5.20
2023-02-12T23:18:56.285Z,5.60
2023-02-12T23:21:30.189Z,5.80
2023-02-12T23:27:09.879Z,5.57
2023-02-12T23:29:36.441Z,5.23
2023-02-12T23:32:03.060Z,5.00
2023-02-12T23:34:42.100Z,5.40
2023-02-12T23:37:37.557Z,4.93
2023-02-12T23:42:56.094Z,5.50
2023-02-12T23:45:31.041Z,5.53
2023-02-12T23:48:38.221Z,5.53
2023-02-12T23:51:22.950Z,5.17
2023-02-12T23:53:55.403Z,5.23
2023-02-12T23:58:57.584Z,5.23
